Rui Cunha

Olheiro-Chefe - Arouca
4 Dez 2028
Segunda-feira
Processo

Personalidade

Adaptabilidade (1) Ambição (12) Controvérsia (17) Lealdade (14) Pressão (17) Profissionalismo (9) Espírito Esportivo (14) Temperamento (16)

Perfil

Estilo de Treinamento Democrático
Licença Nacional B
Determinação 10
Gestão de Pessoas 9
Motivação 4
Disciplina 6
Satisfação no Trabalho
100%
Fadiga
0%
Função Olheiro-Chefe
Salário 42.0K p/s
Contrato 14.03.2029

Desempenho

Comportamento Bom
Eficácia do Treinamento
49%
Desenvolvimento do Jogador
30%
Prevenção de Lesões
25%
Implementação Tática
50%

Eventos Recentes

Participou de uma reunião de recrutamento agora
Participou de uma reunião de recrutamento agora
Recomendou um alvo de transferência agora
Recomendou um alvo de transferência agora
Recomendou um alvo de transferência agora
Participou de uma reunião de recrutamento agora
Recomendou um alvo de transferência agora
Recomendou um alvo de transferência 7d atrás

Monitorando agora

92
Jogador Clube Status Habilidade Confiança Observado Última observação Último voto
Duarte Cunha Porto Perdido 109 / 124 69% 1 21.08.2028 -
Nito Pacos de Ferreira Perdido 89 / 91 69% 1 31.07.2028 -
Kiko Pereira Chaves Ativo 103 / 110 69% 1 10.07.2028 Aprovar
João Silva Oliveirense Ativo 99 / 106 65% 1 02.06.2028 Aprovar
Mao Hosoya Santos Ativo 134 / 135 67% 1 01.01.2028 Aprovar
Kwadwo Baah Watford Ativo 121 / 126 40% 3 27.05.2027 -
Sorriso Famalicao Ativo 133 / 131 40% 4 26.05.2027 -
Othmane Maamma Watford Ativo 129 / 135 40% 1 26.05.2027 -
Alfie Doughty Millwall Ativo 133 / 124 40% 1 22.05.2027 -
Joseph Hungbo Wigan Athletic Ativo 107 / 100 40% 1 22.05.2027 -
Giorgi Chakvetadze Watford Ativo 131 / 120 40% 1 21.05.2027 -
Tahith Chong Sheffield United Ativo 121 / 115 40% 1 21.05.2027 -
Tyrese Campbell Sheffield United Ativo 119 / 121 40% 2 20.05.2027 -
Milan van Ewijk Coventry City Ativo 132 / 126 40% 4 19.05.2027 -
Martín Tejón Maritimo Ativo 125 / 111 40% 2 18.05.2027 -
Bongani Zungu Ajax Cape Town Ativo 112 / 127 40% 5 14.05.2027 -
Tony Springett Cheltenham Town Ativo 111 / 101 40% 1 12.05.2027 -
Jackson Muleka Konyaspor Ativo 122 / 124 40% 1 12.05.2027 -
Amine Adli Bournemouth Ativo 142 / 140 40% 1 09.05.2027 -
Daniel Kyerewaa Reading Ativo 111 / 111 40% 2 07.05.2027 -
Lorougnon Gohi Académico de Viseu Ativo 115 / 117 40% 1 07.05.2027 Mais informações
Jack Rudoni Coventry City Ativo 131 / 136 40% 3 05.05.2027 -
Ricard Sánchez Estoril Praia Ativo 120 / 126 40% 2 01.05.2027 -
Derensili Sanches Fernandes Huddersfield Town Ativo 134 / 125 40% 1 01.05.2027 -
Olívio Tomé Benfica Ativo 106 / 110 40% 2 28.04.2027 -
Bobby Clark Derby County Ativo 132 / 117 40% 1 28.04.2027 -
Sonny Carey Charlton Athletic Ativo 118 / 128 40% 1 27.04.2027 -
Joe Gelhardt Hull City Ativo 131 / 136 40% 3 26.04.2027 -
Juan Bezerra Zamalek Ativo 118 / 119 40% 3 26.04.2027 -
Andre Brooks Sheffield United Ativo 134 / 138 40% 3 23.04.2027 -
Tomáš Rigo Stoke City Ativo 124 / 133 40% 1 22.04.2027 -
Sam Greenwood Bristol City Ativo 126 / 114 40% 2 20.04.2027 -
Max Bird Birmingham Ativo 129 / 128 40% 1 20.04.2027 -
Max Johnston Derby County Ativo 136 / 123 40% 1 18.04.2027 -
Mohamed-Ali Cho Hull City Ativo 136 / 142 40% 2 17.04.2027 -
Yanis Begraoui Estoril Praia Ativo 129 / 136 40% 1 16.04.2027 -
Jason Knight Bristol City Ativo 123 / 120 40% 1 10.04.2027 -
Harry Clarke Preston Ativo 123 / 129 40% 1 07.04.2027 -
Santi García Gil Vicente Ativo 144 / 138 40% 1 06.04.2027 -
Vinícius Lopes Santa Clara Ativo 115 / 120 40% 3 04.04.2027 -
Dennis Cirkin Queens Park Rangers Ativo 130 / 120 40% 2 01.04.2027 -
Simo Maritimo Ativo 123 / 115 40% 1 30.03.2027 -
Rodrigo Ramos Feirense Ativo 124 / 109 40% 1 30.03.2027 -
Gustavo Silva Vitoria Guimaraes Ativo 128 / 124 40% 6 27.03.2027 -
Finn Azaz Southampton Ativo 130 / 118 40% 3 26.03.2027 -
Welington Southampton Ativo 125 / 132 40% 1 22.03.2027 -
Manu Pozo Torreense Ativo 120 / 111 40% 3 18.03.2027 -
Malik Sellouki Rio Ave Ativo 101 / 117 40% 1 17.03.2027 -
Savinho Tottenham Ativo 153 / 166 40% 3 14.03.2027 -
Ole Pohlmann Rio Ave Ativo 133 / 114 40% 1 13.03.2027 -
Ronaldo Maarman University of Pretoria Ativo 103 / 93 40% 1 08.03.2027 -
Cian Ashford Cardiff City Ativo 119 / 115 40% 1 07.03.2027 -
Toby Collyer West Bromwich Albion Ativo 130 / 122 40% 2 04.02.2027 -
Habib Diarra Sunderland Ativo 139 / 147 40% 2 03.02.2027 -
Lukáš Červ Viktoria Plzen Ativo 119 / 134 40% 1 01.02.2027 -
Jack Currie Oxford United Ativo 123 / 125 40% 1 05.01.2027 -
Luke McNally Bristol City Ativo 136 / 124 40% 1 05.01.2027 -
Sampson Dweh Mallorca Ativo 133 / 134 66% 1 01.01.2027 Aprovar
Jefry Zapata Aldosivi Ativo 118 / 118 66% 1 01.01.2027 Aprovar
Julian Herrera Cortulua Ativo 119 / 119 66% 1 01.01.2027 Aprovar
Marley Aké Zulte Waregem Ativo 107 / 106 40% 1 30.12.2026 -
Sylvester Jasper Standard Liege Ativo 120 / 112 40% 1 27.12.2026 -
Paulo Victor Queretaro Ativo 105 / 113 40% 1 26.12.2026 -
Bradley Zwane SuperSport United Ativo 122 / 114 40% 2 24.12.2026 -
Reda Khadra Qarabag Ativo 135 / 126 40% 3 23.12.2026 -
Emi Rodriguez Leon Ativo 118 / 115 40% 3 20.12.2026 -
Soma Anzai FC Tokyo Ativo 110 / 115 40% 1 06.12.2026 -
Pedro Vite Pumas UNAM Ativo 125 / 110 40% 2 02.12.2026 -
Telmo Arcanjo Vitoria Guimaraes Ativo 127 / 118 40% 1 29.11.2026 -
Alex Luna Instituto Ativo 130 / 136 40% 3 28.11.2026 -
Fiete Arp OB Ativo 113 / 112 40% 1 26.11.2026 -
William Gomes Porto Ativo 134 / 136 40% 1 20.11.2026 -
Bosun Lawal Stoke City Ativo 129 / 124 40% 1 20.11.2026 -
Tristan Degreef Anderlecht Ativo 130 / 123 40% 1 18.11.2026 -
Kevin Fulham Ativo 145 / 143 40% 1 15.11.2026 -
Santiago Montiel Independiente Ativo 137 / 136 40% 1 15.11.2026 -
Roberto Fernández Braga Ativo 135 / 137 40% 3 13.11.2026 Observar
Jens Petter Hauge Bodo/Glimt Ativo 142 / 133 40% 2 13.11.2026 -
Tyrhys Dolan Espanyol Ativo 128 / 146 40% 1 12.11.2026 -
Marcelo Allende Mamelodi Sundowns Ativo 118 / 134 40% 2 11.11.2026 -
Ramiro Ruiz Rodríguez Atlético Tucumán Ativo 136 / 135 40% 1 25.10.2026 -
Santiago Rodríguez Columbus Crew Ativo 131 / 122 40% 1 20.10.2026 -
Marcus Edwards Burnley Ativo 134 / 142 40% 1 19.10.2026 -
Eddie Nketiah Crystal Palace Ativo 150 / 146 40% 1 18.10.2026 -
André Wolverhampton Ativo 137 / 152 40% 1 15.10.2026 -
Jadon Sancho Manchester United Ativo 151 / 157 40% 1 15.10.2026 -
Kristoffer Lund Birmingham Ativo 121 / 123 40% 1 14.10.2026 -
Jannenson Sarmiento Junior Ativo 109 / 114 40% 1 11.10.2026 -
Jesús Garza Tigres Ativo 113 / 110 40% 1 10.10.2026 -
Ignacio Perruzzi San Lorenzo Ativo 100 / 140 40% 1 25.08.2026 -
Andrey Estupiñán Millonarios Ativo 124 / 121 40% 1 18.08.2026 -
Wessam Abou Ali Columbus Crew Ativo 145 / 124 40% 1 03.08.2026 -